OFICIUL DE STAT PENTRU INVENŢII ŞI MĂRCI
Strada Ion Ghica nr.5, Sector 3, Bucureşti - Cod 030044 - ROMÂNIA
Telefon centrala:+4021 3060800/01/02/.../28/29; Fax: +4021 3123819
MĂRCI DEPUSE PE CALE NAŢIONALĂ ÎN ROMÂNIA

Lista marcilor in curs de expirare

<<  1  2  3  4  5  6  7  8  9  10  11  12  13  14  15  16  17  18  19  20  21  22  23  24  25  26  27  28  29  30  31  32  33  34  35  36  37  38  39  40  41  42  43  44  45  46  47  48  49  50  51  52  53  54  55  56  57  58  59  60  61  62  63  64  65  66  67  68  69  70  71  72  73  74  75  76  >>

Nr
crt
Numar
Marca
Numar
Depozit
Denumire Clase nisa Titular Data de
expirare
281 105071 M 2009 06924 GOLD BUG 9 SC ALAMODA IMPEX SRL 08.09.2019
282 105072 M 2009 06925 C.C.D.K. 9 SC ALAMODA IMPEX SRL 08.09.2019
283 105073 M 2009 06926 ESLEK 9 SC ALAMODA IMPEX SRL 08.09.2019
284 105074 M 2009 06928 KAMUS 9 SC ALAMODA IMPEX SRL 08.09.2019
285 105102 M 2009 06929 AOERODROSE 9 SC ALAMODA IMPEX SRL 08.09.2019
286 105103 M 2009 06930 BLACK ROSE 9 SC ALAMODA IMPEX SRL 08.09.2019
287 105104 M 2009 06933 BADENCDE 9 SC ALAMODA IMPEX SRL 08.09.2019
288 105060 M 2009 06936 EURO LINE 9 SC ALAMODA IMPEX SRL 08.09.2019
289 105061 M 2009 06937 ALANIE 9 SC ALAMODA IMPEX SRL 08.09.2019
290 105062 M 2009 06938 ART VISION 9 SC ALAMODA IMPEX SRL 08.09.2019
291 105063 M 2009 06939 CHARM 9 SC ALAMODA IMPEX SRL 08.09.2019
292 006263 005317 MINOCIN 5 MEDA AB 09.09.2019
293 006266 005318 AMPICLOX 5 Glaxo Group Limited 09.09.2019
294 104775 M 2009 06941 RED CLINIC 44 SC RED CLINIC SRL 09.09.2019
295 106704 M 2009 06942 Ferestre la preturi mici cum nu a vazut Parisul! 19 35 SC MONDO STYLE SRL 09.09.2019
296 104934 M 2009 06944 MEDICALTEST 35 42 SC MEDICALTEST SRL 09.09.2019
297 104991 M 2009 06945 MAGIC COLOR PUZZLE 28 SC D TOYS SRL 09.09.2019
298 105007 M 2009 06946 DRĂGĂNEŞTEANUL 9 16 35 41 CONSTANTINESCU FLORIN 09.09.2019
299 105018 M 2009 06947 SLĂTINEANUL 9 16 35 41 CONSTANTINESCU FLORIN 09.09.2019
300 105019 M 2009 06948 CORĂBIANUL 9 16 35 41 CONSTANTINESCU FLORIN 09.09.2019
301 106210 M 2009 06949 CENTRUL CHINOLOGIC SIBIU 31 41 42 44 45 CENTRUL CHINOLOGIC 09.09.2019
302 106612 M 2009 06951 ALCEDO PRIETENUL RECOLTELOR SĂNĂTOASE 31 35 39 SC ALCEDO SRL 09.09.2019
303 105531 M 2009 06953 PLOLL 32 JOANTA VASILE 09.09.2019
304 105532 M 2009 06954 AMC PROPERTY 35 45 IONESCU GIUSEPE SORIN 09.09.2019
305 107155 M 2009 06955 XOXO 16 28 SC PERPIGNA SA 09.09.2019
306 105500 M 2009 06956 HUGS & KISSES 16 28 35 SC PERPIGNA SA 09.09.2019
307 105501 M 2009 06957 SCHOOL FRIENDLY 16 28 35 SC PERPIGNA SA 09.09.2019
308 104984 M 2009 06958 Festivalul ROMANI KULTURA (de arte, tradiţii şi meşteşuguri rome) 41 CENTRUL NATIONAL DE CULTURA A ROMILOR ROMANO KHER (CNCR-RK) 09.09.2019
309 105020 M 2009 06959 FORSTER 16 35 39 SC AUSTRAL TRADE SRL 09.09.2019
310 104985 M 2009 06962 Nesih' Art 14 35 SC IN.GE ART SRL 09.09.2019
311 104986 M 2009 06963 CASA DE BALET 41 TUDOR IONUT SORIN 09.09.2019
312 105894 M 2009 06965 IZOKINETIC CENTRU DE RECUPERARE MEDICALĂ ŞI SPORTIVĂ, TĀRGU - MUREŞ 44 SC NOVA VITA SAN SRL 09.09.2019
313 107403 M 2009 06967 DEPOZIT DE USI 19 20 35 HOJU PETRU IULIAN 09.09.2019
314 107404 M 2009 06968 depozitul de uşi 19 20 35 HOJU PETRU IULIAN 09.09.2019
315 105008 M 2009 06973 INNENCOLOR 1 2 17 19 35 39 SC FABRYO CORPORATION SRL 09.09.2019
316 104946 M 2009 06975 B Biavati 43 SC MCM GRUP CAFE SRL 09.09.2019
317 105029 M 2009 06976 LINEA SANTE 5 35 SC TERAPIA SA 09.09.2019
318 105801 M 2009 06977 EUROBINGO 28 35 36 41 SC METROPOLIS GRUP SRL 09.09.2019
319 006786 005525 SAVLON 5 JONSON & JONSON 10.09.2019
320 011070 006833 ARO 4X4 12 SC LANDMARK MANAGEMENT SRL 10.09.2019

<<  1  2  3  4  5  6  7  8  9  10  11  12  13  14  15  16  17  18  19  20  21  22  23  24  25  26  27  28  29  30  31  32  33  34  35  36  37  38  39  40  41  42  43  44  45  46  47  48  49  50  51  52  53  54  55  56  57  58  59  60  61  62  63  64  65  66  67  68  69  70  71  72  73  74  75  76  >>